Casville, North Carolina
Current Conditions -  °F | °C
As of 5:53 PM on Monday 22 Dec 2014 (Local Time) from KDAN Reporting Station
Haze Haze  
Wind Chill: -1°   Ceiling: 500
Heat Index:   Visibility: 3mi
Dew Point:   Wind: 7mph
Humidity: 93%   Direction: 40°NE
Pressure: 30.1"   Gusts: NA
Location:  36.4355°N, 79.5464°W
Report Text: KDAN 222253Z AUTO 04006KT 3SM BR OVC005 02/01 A3010 RMK AO2 CIG 003V008 SLP190 T00220011
Loading
Personal Weather Stations






























Interactive Weather Map New forecast layout! Learn more

10-Day Weather Forecast

Advertisements
Track Severe Weather on mobile